Time;durP1;ratioP1;P1;durP2;ratioP2;P2;SDS_P1;SDS_P2;PMS_P1;PMS_P2;Temp;Humidity;BMP_temperature;BMP_pressure;BME280_temperature;BME280_humidity;BME280_pressure;Samples;Min_cycle;Max_cycle;Signal;HPM_P1;HPM_P2
2022/10/29 00:01:56;;;;;;;18.95;11.32;;;23.60;99.90;;;;;;5031915;28;20029;-48
2022/10/29 00:04:22;;;;;;;23.30;11.80;;;23.60;99.90;;;;;;5031700;28;20473;-47
2022/10/29 00:06:48;;;;;;;24.30;12.85;;;23.60;99.90;;;;;;5031404;28;20033;-48
2022/10/29 00:09:14;;;;;;;20.40;12.95;;;23.50;99.90;;;;;;5035496;28;20378;-48
2022/10/29 00:11:39;;;;;;;24.90;11.55;;;23.50;99.90;;;;;;5044819;28;20024;-49
2022/10/29 00:14:05;;;;;;;22.52;12.70;;;23.50;99.90;;;;;;5041467;28;20401;-49
2022/10/29 00:16:37;;;;;;;15.25;12.00;;;23.50;99.90;;;;;;5045206;28;20021;-48
2022/10/29 00:19:03;;;;;;;21.17;13.50;;;23.50;99.90;;;;;;5050564;28;20045;-49
2022/10/29 00:21:30;;;;;;;18.58;12.10;;;23.50;99.90;;;;;;5052732;28;20021;-48
2022/10/29 00:23:57;;;;;;;17.63;12.63;;;23.50;99.90;;;;;;5052146;28;20028;-48
2022/10/29 00:26:23;;;;;;;21.77;12.77;;;23.50;99.90;;;;;;5052794;28;20253;-49
2022/10/29 00:28:54;;;;;;;23.57;12.87;;;23.50;99.90;;;;;;5052552;28;20056;-50
2022/10/29 00:31:23;;;;;;;22.10;12.90;;;23.50;99.90;;;;;;5051106;28;20025;-49
2022/10/29 00:33:50;;;;;;;26.33;14.25;;;23.50;99.90;;;;;;5051757;28;20024;-48
2022/10/29 00:36:20;;;;;;;15.73;11.70;;;23.50;99.90;;;;;;5040580;28;20361;-48
2022/10/29 00:38:46;;;;;;;18.42;11.82;;;23.50;99.90;;;;;;5052458;28;20035;-48
2022/10/29 00:41:14;;;;;;;21.75;12.90;;;23.50;99.90;;;;;;5042275;28;20025;-48
2022/10/29 00:43:45;;;;;;;16.15;12.65;;;23.60;99.90;;;;;;5052417;28;20021;-48
2022/10/29 00:46:48;;;;;;;21.20;13.30;;;23.60;99.90;;;;;;5052609;28;20025;-48
2022/10/29 00:49:15;;;;;;;18.92;13.20;;;23.70;99.90;;;;;;4952490;29;20023;-48
2022/10/29 00:51:41;;;;;;;18.63;12.95;;;23.70;99.90;;;;;;5016671;28;20037;-48
2022/10/29 00:54:12;;;;;;;17.75;11.60;;;23.70;99.90;;;;;;5052376;28;20447;-48
2022/10/29 00:56:45;;;;;;;18.63;12.00;;;23.70;99.90;;;;;;5051128;28;20098;-48
2022/10/29 00:59:14;;;;;;;19.55;12.50;;;23.80;99.90;;;;;;5054882;28;20075;-48
2022/10/29 01:01:40;;;;;;;17.75;11.70;;;23.80;99.90;;;;;;5055853;28;20120;-49
2022/10/29 01:04:08;;;;;;;22.45;11.55;;;23.80;99.90;;;;;;5055902;28;20500;-48
2022/10/29 01:06:34;;;;;;;28.48;11.90;;;23.80;99.90;;;;;;5056671;28;20559;-48
2022/10/29 01:08:59;;;;;;;20.67;11.88;;;23.80;99.90;;;;;;5056796;28;20057;-48
2022/10/29 01:11:46;;;;;;;14.80;10.13;;;23.80;99.90;;;;;;5056435;28;20045;-48
2022/10/29 01:14:31;;;;;;;16.40;11.52;;;23.80;99.90;;;;;;5055508;28;20028;-48
2022/10/29 01:17:15;;;;;;;21.13;14.20;;;23.80;99.90;;;;;;5056364;28;20086;-49
2022/10/29 01:20:09;;;;;;;16.15;11.15;;;23.80;99.90;;;;;;5056392;28;20330;-48
2022/10/29 01:23:05;;;;;;;25.45;11.23;;;23.80;99.90;;;;;;5030181;28;20084;-48
2022/10/29 01:25:57;;;;;;;18.35;11.80;;;23.80;99.90;;;;;;5002172;28;20077;-48
2022/10/29 01:28:32;;;;;;;20.73;11.30;;;23.80;99.90;;;;;;5032596;28;20094;-49
2022/10/29 01:31:25;;;;;;;21.75;12.05;;;23.80;99.90;;;;;;5056374;28;20104;-49
2022/10/29 01:34:02;;;;;;;24.15;10.10;;;23.80;99.90;;;;;;5056156;28;20103;-50
2022/10/29 01:36:39;;;;;;;18.42;10.30;;;23.80;99.90;;;;;;5055824;28;20096;-49
2022/10/29 01:39:34;;;;;;;16.13;11.02;;;23.80;99.90;;;;;;5055958;28;20517;-48
2022/10/29 01:42:26;;;;;;;22.52;12.77;;;23.80;99.90;;;;;;5055870;28;20025;-49
2022/10/29 01:45:02;;;;;;;16.13;10.30;;;23.80;99.90;;;;;;5055992;28;20041;-49
2022/10/29 01:47:35;;;;;;;18.15;11.57;;;23.80;99.90;;;;;;5054601;28;20469;-49
2022/10/29 01:50:05;;;;;;;17.00;10.43;;;23.80;99.90;;;;;;5055846;28;20067;-49
2022/10/29 01:52:33;;;;;;;22.38;11.35;;;23.80;99.90;;;;;;5055786;28;20025;-49
2022/10/29 01:55:01;;;;;;;15.98;9.95;;;23.80;99.90;;;;;;5055562;28;20033;-49
2022/10/29 01:57:35;;;;;;;17.25;10.75;;;23.80;99.90;;;;;;5055826;28;20115;-49
2022/10/29 02:00:08;;;;;;;22.50;11.57;;;23.70;99.90;;;;;;5055926;28;20128;-49
2022/10/29 02:02:52;;;;;;;15.18;10.18;;;23.80;99.90;;;;;;5055775;28;20373;-49
2022/10/29 02:05:18;;;;;;;18.13;9.95;;;23.80;99.90;;;;;;5055114;28;20147;-48
2022/10/29 02:08:22;;;;;;;17.88;11.35;;;23.80;99.90;;;;;;5054926;28;20203;-49
2022/10/29 02:11:12;;;;;;;21.40;11.05;;;23.80;99.90;;;;;;5031839;28;20041;-49
2022/10/29 02:13:45;;;;;;;23.45;10.40;;;23.70;99.90;;;;;;5035494;28;20060;-49
2022/10/29 02:16:14;;;;;;;22.27;10.98;;;23.70;99.90;;;;;;5035791;28;20056;-49
2022/10/29 02:18:45;;;;;;;18.88;11.20;;;23.70;99.90;;;;;;5035604;28;20108;-47
2022/10/29 02:21:14;;;;;;;15.90;10.20;;;23.70;99.90;;;;;;5035684;28;20025;-48
2022/10/29 02:23:40;;;;;;;15.50;10.43;;;23.70;99.90;;;;;;5035766;28;20056;-48
2022/10/29 02:26:06;;;;;;;17.63;10.77;;;23.70;99.90;;;;;;5035612;28;20438;-48
2022/10/29 02:28:32;;;;;;;15.63;9.68;;;23.70;99.90;;;;;;5035432;28;20044;-48
2022/10/29 02:30:57;;;;;;;17.42;10.00;;;23.70;99.90;;;;;;5035472;28;20018;-49
2022/10/29 02:33:23;;;;;;;18.85;10.07;;;23.70;99.90;;;;;;5035273;28;20029;-49
2022/10/29 02:35:49;;;;;;;15.82;9.98;;;23.70;99.90;;;;;;5035327;28;20022;-49
2022/10/29 02:38:14;;;;;;;17.42;10.38;;;23.70;99.90;;;;;;5035592;28;20029;-49
2022/10/29 02:40:40;;;;;;;18.55;9.70;;;23.70;99.90;;;;;;5035315;28;20029;-49
2022/10/29 02:43:06;;;;;;;16.52;9.13;;;23.70;99.90;;;;;;5035407;28;20378;-49
2022/10/29 02:45:31;;;;;;;22.15;10.38;;;23.60;99.90;;;;;;5035196;28;20025;-49
2022/10/29 02:47:57;;;;;;;16.73;10.07;;;23.70;99.90;;;;;;5035216;28;20021;-49
2022/10/29 02:50:23;;;;;;;16.20;9.57;;;23.70;99.90;;;;;;5035255;28;20036;-48
2022/10/29 02:52:49;;;;;;;17.38;9.13;;;23.70;99.90;;;;;;5035039;28;20025;-49
2022/10/29 02:55:14;;;;;;;17.67;9.70;;;23.60;99.90;;;;;;5035125;28;20025;-49
2022/10/29 02:57:43;;;;;;;23.55;8.63;;;23.60;99.90;;;;;;5051610;28;20040;-49
2022/10/29 03:00:10;;;;;;;17.88;11.00;;;23.60;99.90;;;;;;5035365;28;20061;-49
2022/10/29 03:02:35;;;;;;;24.40;11.80;;;23.60;99.90;;;;;;5034795;28;20022;-48
2022/10/29 03:05:01;;;;;;;20.35;12.48;;;23.60;99.90;;;;;;5017287;28;20425;-48
2022/10/29 03:07:27;;;;;;;22.92;14.40;;;23.60;99.90;;;;;;5034739;28;20381;-48
2022/10/29 03:09:53;;;;;;;14.18;10.27;;;23.60;99.90;;;;;;5034682;28;20116;-49
2022/10/29 03:12:18;;;;;;;22.25;8.75;;;23.50;99.90;;;;;;5034714;28;20022;-49
2022/10/29 03:14:44;;;;;;;17.85;8.38;;;23.50;99.90;;;;;;5037332;28;20017;-48
2022/10/29 03:17:10;;;;;;;12.13;8.32;;;23.50;99.90;;;;;;5054384;28;20025;-49
2022/10/29 03:19:36;;;;;;;15.27;8.13;;;23.50;99.90;;;;;;5054619;28;20036;-49
2022/10/29 03:22:01;;;;;;;21.17;10.20;;;23.50;99.90;;;;;;5054018;28;20017;-49
2022/10/29 03:24:27;;;;;;;16.42;10.48;;;23.50;99.90;;;;;;5054300;28;20036;-49
2022/10/29 03:26:53;;;;;;;21.80;10.45;;;23.50;99.90;;;;;;5054774;28;20033;-49
2022/10/29 03:29:18;;;;;;;18.40;9.80;;;23.50;99.90;;;;;;5054397;28;20029;-49
2022/10/29 03:31:44;;;;;;;13.80;9.57;;;23.40;99.90;;;;;;5054403;28;20063;-49
2022/10/29 03:34:10;;;;;;;19.65;10.65;;;23.40;99.90;;;;;;5054424;28;20025;-49
2022/10/29 03:36:35;;;;;;;22.20;13.75;;;23.40;99.90;;;;;;5054125;28;20021;-49
2022/10/29 03:39:01;;;;;;;22.08;11.90;;;23.40;99.90;;;;;;5053822;28;20469;-49
2022/10/29 03:41:27;;;;;;;20.33;12.85;;;23.40;99.90;;;;;;5052663;28;20040;-49
2022/10/29 03:43:53;;;;;;;25.65;10.50;;;23.40;99.90;;;;;;5053985;28;20083;-50
2022/10/29 03:46:18;;;;;;;16.25;10.18;;;23.30;99.90;;;;;;5053937;28;20428;-49
2022/10/29 03:48:47;;;;;;;21.08;10.85;;;23.40;99.90;;;;;;5069326;28;20021;-49
2022/10/29 03:51:13;;;;;;;21.23;13.88;;;23.30;99.90;;;;;;5053890;28;20052;-49
2022/10/29 03:53:38;;;;;;;28.25;15.48;;;23.30;99.90;;;;;;5053892;28;20417;-49
2022/10/29 03:56:05;;;;;;;23.15;14.35;;;23.30;99.90;;;;;;5053819;28;20029;-49
2022/10/29 03:58:31;;;;;;;18.77;13.73;;;23.30;99.90;;;;;;5053741;28;20025;-49
2022/10/29 04:01:05;;;;;;;26.98;16.08;;;23.30;99.90;;;;;;5054626;28;20060;-48
2022/10/29 04:03:32;;;;;;;23.85;12.63;;;23.30;99.90;;;;;;5053737;28;20035;-48
2022/10/29 04:06:00;;;;;;;20.08;13.43;;;23.20;99.90;;;;;;5053569;28;20029;-48
2022/10/29 04:08:26;;;;;;;24.92;15.15;;;23.20;99.90;;;;;;5053717;28;20017;-48
2022/10/29 04:10:52;;;;;;;39.35;18.70;;;23.20;99.90;;;;;;5053555;28;20036;-48
2022/10/29 04:13:18;;;;;;;19.77;16.45;;;23.20;99.90;;;;;;5053638;28;20102;-49
2022/10/29 04:15:45;;;;;;;17.83;12.30;;;23.20;99.90;;;;;;5053451;28;20029;-48
2022/10/29 04:18:11;;;;;;;16.88;10.68;;;23.20;99.90;;;;;;5053602;28;20073;-48
2022/10/29 04:20:38;;;;;;;20.55;10.88;;;23.10;99.90;;;;;;5053399;28;20480;-48
2022/10/29 04:23:04;;;;;;;19.08;10.82;;;23.10;99.90;;;;;;5053524;28;20051;-48
2022/10/29 04:25:30;;;;;;;25.65;15.35;;;23.10;99.90;;;;;;5053552;28;20029;-48
2022/10/29 04:27:56;;;;;;;18.10;13.02;;;23.10;99.90;;;;;;5053302;28;20021;-48
2022/10/29 04:30:23;;;;;;;18.17;11.90;;;23.10;99.90;;;;;;5053258;28;20028;-48
2022/10/29 04:32:49;;;;;;;20.55;11.80;;;23.00;99.90;;;;;;5052623;28;20021;-48
2022/10/29 04:35:14;;;;;;;16.42;11.30;;;23.00;99.90;;;;;;5053294;28;20063;-48
2022/10/29 04:37:40;;;;;;;19.33;10.80;;;23.00;99.90;;;;;;5053305;28;20032;-48
2022/10/29 04:40:06;;;;;;;16.73;10.40;;;23.00;99.90;;;;;;5052994;28;20061;-49
2022/10/29 04:42:36;;;;;;;18.83;10.52;;;23.00;99.90;;;;;;5052985;28;20063;-48
2022/10/29 04:45:03;;;;;;;17.90;10.80;;;23.00;99.90;;;;;;5053010;28;20473;-48
2022/10/29 04:47:28;;;;;;;17.55;9.95;;;23.00;99.90;;;;;;5052976;28;20033;-48
2022/10/29 04:49:54;;;;;;;20.20;10.15;;;23.00;99.90;;;;;;5053076;28;20377;-48
2022/10/29 04:52:20;;;;;;;21.15;9.85;;;23.00;99.90;;;;;;5052940;28;20021;-48
2022/10/29 04:54:45;;;;;;;14.93;9.50;;;23.00;99.90;;;;;;5052829;28;20022;-49
2022/10/29 04:57:11;;;;;;;17.73;10.38;;;23.00;99.90;;;;;;5052970;28;20468;-48
2022/10/29 04:59:37;;;;;;;18.80;9.65;;;23.00;99.90;;;;;;5052799;28;20041;-47
2022/10/29 05:02:03;;;;;;;19.45;9.93;;;23.00;99.90;;;;;;5052798;28;20021;-48
2022/10/29 05:04:28;;;;;;;17.60;10.27;;;23.00;99.90;;;;;;5052821;28;20021;-48
2022/10/29 05:06:54;;;;;;;16.33;10.90;;;23.00;99.90;;;;;;5053125;28;20445;-48
2022/10/29 05:09:20;;;;;;;21.48;10.32;;;23.00;99.90;;;;;;5052884;28;20052;-48
2022/10/29 05:11:46;;;;;;;13.80;10.18;;;23.00;99.90;;;;;;5053062;28;20024;-48
2022/10/29 05:14:11;;;;;;;20.05;10.48;;;23.00;99.90;;;;;;5034954;28;20441;-48
2022/10/29 05:16:37;;;;;;;16.08;10.43;;;23.00;99.90;;;;;;5052793;28;20033;-48
2022/10/29 05:19:04;;;;;;;24.23;12.48;;;23.00;99.90;;;;;;5035007;28;20133;-48
2022/10/29 05:21:30;;;;;;;16.65;10.40;;;23.00;99.90;;;;;;5052962;28;20025;-48
2022/10/29 05:23:56;;;;;;;17.88;11.00;;;23.00;99.90;;;;;;5052816;28;20033;-48
2022/10/29 05:26:22;;;;;;;19.52;10.57;;;23.00;99.90;;;;;;5052839;28;20080;-49
2022/10/29 05:28:51;;;;;;;26.05;12.45;;;23.00;99.90;;;;;;5052465;28;20051;-48
2022/10/29 05:31:17;;;;;;;18.52;10.43;;;23.00;99.90;;;;;;5052652;28;20045;-49
2022/10/29 05:33:43;;;;;;;25.13;11.00;;;23.00;99.90;;;;;;5052843;28;20029;-49
2022/10/29 05:36:10;;;;;;;20.38;12.63;;;23.00;99.90;;;;;;5034768;28;20025;-49
2022/10/29 05:38:36;;;;;;;27.10;12.80;;;23.00;99.90;;;;;;5034735;28;20029;-49
2022/10/29 05:41:02;;;;;;;23.52;11.93;;;23.00;99.90;;;;;;5052597;28;20029;-49
2022/10/29 05:43:27;;;;;;;22.13;11.63;;;23.00;99.90;;;;;;5052575;28;20029;-48
2022/10/29 05:45:53;;;;;;;24.20;10.77;;;23.00;99.90;;;;;;5038239;28;20065;-49
2022/10/29 05:48:19;;;;;;;26.23;13.60;;;23.00;99.90;;;;;;5056215;28;20025;-49
2022/10/29 05:50:45;;;;;;;21.35;13.35;;;23.00;99.90;;;;;;5056211;28;20044;-48
2022/10/29 05:53:12;;;;;;;15.68;11.77;;;23.00;99.90;;;;;;5056111;28;20051;-48
2022/10/29 05:55:40;;;;;;;15.90;11.48;;;23.00;99.90;;;;;;5056099;28;20025;-48
2022/10/29 05:58:09;;;;;;;21.77;11.20;;;23.00;99.90;;;;;;5056215;28;20098;-49
2022/10/29 06:00:37;;;;;;;23.15;12.85;;;23.00;99.90;;;;;;5055950;28;20060;-49
2022/10/29 06:03:03;;;;;;;24.13;13.13;;;23.00;99.90;;;;;;5056115;28;20021;-48
2022/10/29 06:05:29;;;;;;;25.00;12.45;;;22.90;99.90;;;;;;5056110;28;20040;-48
2022/10/29 06:07:56;;;;;;;23.63;11.60;;;22.90;99.90;;;;;;5055958;28;20017;-49
2022/10/29 06:10:23;;;;;;;19.23;11.93;;;22.90;99.90;;;;;;5056035;28;20021;-48
2022/10/29 06:12:49;;;;;;;20.35;12.95;;;22.90;99.90;;;;;;5056218;28;20410;-48
2022/10/29 06:15:15;;;;;;;18.73;13.15;;;22.90;99.90;;;;;;5055793;28;20397;-49
2022/10/29 06:17:42;;;;;;;19.15;12.27;;;22.90;99.90;;;;;;5055916;28;20028;-49
2022/10/29 06:20:09;;;;;;;23.83;12.52;;;22.80;99.90;;;;;;5037787;28;20033;-49
2022/10/29 06:22:35;;;;;;;17.75;9.50;;;22.80;99.90;;;;;;5037723;28;20033;-49
2022/10/29 06:25:01;;;;;;;14.43;9.40;;;22.90;99.90;;;;;;5055698;28;20040;-48
2022/10/29 06:27:27;;;;;;;20.40;9.80;;;22.90;99.90;;;;;;5055503;28;20032;-48
2022/10/29 06:29:52;;;;;;;20.23;11.38;;;22.90;99.90;;;;;;5055377;28;20481;-48
2022/10/29 06:32:18;;;;;;;15.98;9.23;;;22.90;99.90;;;;;;5055627;28;20029;-49
2022/10/29 06:34:44;;;;;;;14.73;9.95;;;22.90;99.90;;;;;;5037460;28;20389;-49
2022/10/29 06:37:10;;;;;;;19.48;8.45;;;22.80;99.90;;;;;;5055110;28;20025;-49
2022/10/29 06:39:35;;;;;;;19.10;8.88;;;22.80;99.90;;;;;;5055225;28;20428;-48
2022/10/29 06:42:02;;;;;;;14.05;9.48;;;22.80;99.90;;;;;;5037463;28;20096;-49
2022/10/29 06:44:27;;;;;;;14.48;9.82;;;22.90;99.90;;;;;;5055242;28;20462;-49
2022/10/29 06:46:53;;;;;;;15.65;10.20;;;22.90;99.90;;;;;;5055236;28;20104;-49
2022/10/29 06:49:19;;;;;;;12.32;8.82;;;22.90;99.90;;;;;;5054863;28;20028;-47
2022/10/29 06:51:46;;;;;;;16.27;9.70;;;22.90;99.90;;;;;;5055059;28;20029;-49
2022/10/29 06:54:11;;;;;;;21.35;10.13;;;22.90;99.90;;;;;;5055022;28;20074;-50
2022/10/29 06:56:37;;;;;;;20.50;10.60;;;22.90;99.90;;;;;;5054031;28;20025;-50
2022/10/29 06:59:03;;;;;;;21.67;11.60;;;22.90;99.90;;;;;;5055127;28;20046;-49
2022/10/29 07:01:31;;;;;;;17.60;9.57;;;22.90;99.90;;;;;;5054710;28;20071;-49
2022/10/29 07:04:00;;;;;;;21.00;10.35;;;22.90;99.90;;;;;;5036826;28;20531;-49
2022/10/29 07:06:26;;;;;;;16.17;10.63;;;22.90;99.90;;;;;;5054834;28;20385;-48
2022/10/29 07:08:52;;;;;;;15.55;8.50;;;22.90;99.90;;;;;;5054744;28;20048;-49
2022/10/29 07:11:18;;;;;;;14.15;9.18;;;22.90;99.90;;;;;;5054459;28;20464;-49
2022/10/29 07:13:44;;;;;;;19.08;10.25;;;22.90;99.90;;;;;;5036505;28;20021;-48
2022/10/29 07:16:10;;;;;;;19.73;9.50;;;22.90;99.90;;;;;;5054681;28;20377;-49
2022/10/29 07:18:35;;;;;;;19.45;10.48;;;23.00;99.90;;;;;;5054392;28;20029;-49
2022/10/29 07:21:02;;;;;;;17.00;8.93;;;23.00;99.90;;;;;;5054500;28;20029;-49
2022/10/29 07:23:28;;;;;;;20.50;8.90;;;23.00;99.90;;;;;;5054371;28;20108;-49
2022/10/29 07:25:54;;;;;;;20.45;9.40;;;23.00;99.90;;;;;;5054439;28;20481;-49
2022/10/29 07:28:22;;;;;;;18.45;9.20;;;23.00;99.90;;;;;;5054399;28;20112;-49
2022/10/29 07:30:49;;;;;;;17.73;9.65;;;23.00;99.90;;;;;;5054281;28;20078;-49
2022/10/29 07:33:16;;;;;;;19.58;8.77;;;23.00;99.90;;;;;;5054042;28;20509;-49
2022/10/29 07:35:42;;;;;;;24.88;10.27;;;23.00;99.90;;;;;;5054434;28;20033;-49
2022/10/29 07:38:09;;;;;;;18.45;10.50;;;23.00;99.90;;;;;;5053920;28;20017;-48
2022/10/29 07:40:35;;;;;;;20.42;9.13;;;23.00;99.90;;;;;;5054047;28;20060;-48
2022/10/29 07:43:01;;;;;;;12.40;9.13;;;23.10;99.90;;;;;;5054126;28;20462;-49
2022/10/29 07:45:27;;;;;;;15.25;8.20;;;23.10;99.90;;;;;;5053975;28;20100;-49
2022/10/29 07:48:00;;;;;;;12.82;7.53;;;23.10;99.90;;;;;;5053984;28;20021;-49
2022/10/29 07:50:27;;;;;;;20.13;9.27;;;23.10;99.90;;;;;;5036148;28;20021;-49
2022/10/29 07:52:53;;;;;;;21.90;9.38;;;23.10;99.90;;;;;;5053850;28;20021;-49
2022/10/29 07:55:19;;;;;;;16.50;8.98;;;23.10;99.90;;;;;;5053620;28;20094;-49
2022/10/29 07:57:44;;;;;;;16.20;8.40;;;23.20;99.90;;;;;;5053888;28;20041;-49
2022/10/29 08:00:11;;;;;;;16.33;7.70;;;23.20;99.90;;;;;;5053431;28;20041;-48
2022/10/29 08:02:38;;;;;;;15.50;8.73;;;23.20;99.90;;;;;;5035834;28;20147;-49
2022/10/29 08:05:04;;;;;;;13.50;8.13;;;23.30;99.90;;;;;;5053713;28;20033;-48
2022/10/29 08:07:30;;;;;;;17.67;9.98;;;23.30;99.90;;;;;;5053702;28;20044;-49
2022/10/29 08:09:56;;;;;;;20.25;8.80;;;23.40;99.90;;;;;;5053617;28;20466;-48
2022/10/29 08:12:21;;;;;;;14.10;9.82;;;23.40;99.90;;;;;;5053708;28;20095;-49
2022/10/29 08:14:47;;;;;;;26.33;12.30;;;23.40;99.90;;;;;;5035719;28;20021;-49
2022/10/29 08:17:13;;;;;;;17.23;8.95;;;23.40;99.90;;;;;;5053394;28;20036;-49
2022/10/29 08:19:38;;;;;;;15.65;7.85;;;23.40;99.90;;;;;;5035537;28;20044;-49
2022/10/29 08:22:04;;;;;;;15.57;9.50;;;23.40;99.90;;;;;;5053244;28;20389;-49
2022/10/29 08:24:30;;;;;;;15.85;7.95;;;23.50;99.90;;;;;;5035492;28;20487;-49
2022/10/29 08:26:56;;;;;;;12.38;7.65;;;23.50;99.90;;;;;;5035456;28;20492;-49
2022/10/29 08:29:21;;;;;;;14.57;7.75;;;23.50;99.90;;;;;;5053211;28;20488;-48
2022/10/29 08:31:47;;;;;;;17.95;7.90;;;23.60;99.90;;;;;;5053142;28;20021;-49
2022/10/29 08:34:13;;;;;;;15.63;8.05;;;23.50;99.90;;;;;;5053125;28;20120;-49
2022/10/29 08:36:40;;;;;;;12.45;7.78;;;23.60;99.90;;;;;;5053272;28;20032;-49
2022/10/29 08:39:06;;;;;;;14.57;7.53;;;23.60;99.90;;;;;;5052998;28;20040;-49
2022/10/29 08:41:38;;;;;;;16.75;8.75;;;23.70;99.90;;;;;;5053133;28;20029;-49
2022/10/29 08:44:10;;;;;;;16.05;9.18;;;23.70;99.90;;;;;;5053118;28;20021;-49
2022/10/29 08:47:08;;;;;;;18.92;12.32;;;23.70;99.90;;;;;;5052895;28;20042;-49
2022/10/29 08:49:42;;;;;;;27.08;14.20;;;23.80;99.90;;;;;;5053144;28;20539;-49
2022/10/29 08:52:23;;;;;;;18.02;10.25;;;23.80;99.90;;;;;;5052883;28;20029;-49
2022/10/29 08:55:14;;;;;;;16.17;9.27;;;23.80;99.90;;;;;;5052701;28;20489;-49
2022/10/29 08:57:58;;;;;;;18.92;8.35;;;23.90;99.90;;;;;;5052912;28;20028;-49
2022/10/29 09:00:33;;;;;;;22.80;11.68;;;23.90;99.90;;;;;;5052480;28;20049;-50
2022/10/29 09:03:00;;;;;;;14.15;7.47;;;23.90;99.90;;;;;;5052792;28;20021;-48
2022/10/29 09:05:48;;;;;;;18.50;8.30;;;24.00;99.90;;;;;;5052626;28;20366;-49
2022/10/29 09:08:25;;;;;;;12.75;7.53;;;24.10;99.90;;;;;;5052797;28;20112;-48
2022/10/29 09:10:56;;;;;;;15.50;7.70;;;24.10;99.90;;;;;;5053034;28;20036;-49
2022/10/29 09:13:59;;;;;;;16.42;7.57;;;24.10;99.90;;;;;;5052723;28;20465;-49
2022/10/29 09:16:27;;;;;;;18.88;6.70;;;24.10;99.90;;;;;;5052723;28;20560;-49
2022/10/29 09:19:07;;;;;;;17.48;7.25;;;24.20;99.90;;;;;;5053348;28;20051;-49
2022/10/29 09:22:17;;;;;;;18.90;8.32;;;24.20;99.90;;;;;;5056990;28;20025;-49
2022/10/29 09:25:15;;;;;;;28.00;11.77;;;24.30;99.90;;;;;;5056591;28;20170;-49
2022/10/29 09:27:44;;;;;;;27.42;11.75;;;24.40;99.90;;;;;;5038759;28;20033;-49
2022/10/29 09:30:18;;;;;;;24.83;13.40;;;24.50;99.90;;;;;;5038595;28;20386;-48
2022/10/29 09:32:53;;;;;;;16.38;7.40;;;24.60;99.90;;;;;;5056461;28;20112;-49
2022/10/29 09:35:21;;;;;;;13.90;7.07;;;24.70;99.90;;;;;;5052991;28;20048;-48
2022/10/29 09:37:52;;;;;;;15.85;8.00;;;24.70;99.90;;;;;;5056034;28;21192;-48
2022/10/29 09:40:30;;;;;;;14.30;7.40;;;24.70;99.90;;;;;;5050623;28;20026;-49
2022/10/29 09:42:59;;;;;;;15.13;7.43;;;24.80;99.90;;;;;;5056380;28;20033;-50
2022/10/29 09:45:45;;;;;;;18.27;8.07;;;24.80;99.90;;;;;;5054162;28;20040;-49
2022/10/29 09:48:31;;;;;;;14.00;6.88;;;24.90;99.90;;;;;;5055461;28;20025;-49
2022/10/29 09:51:14;;;;;;;14.35;5.88;;;25.00;99.90;;;;;;5056343;28;20082;-49
2022/10/29 09:53:39;;;;;;;18.48;6.13;;;25.10;99.90;;;;;;5056258;28;20112;-50
2022/10/29 09:56:09;;;;;;;13.63;5.97;;;25.20;99.90;;;;;;5053270;28;20096;-49
2022/10/29 09:58:38;;;;;;;15.20;6.10;;;25.30;99.90;;;;;;5054385;28;20025;-49
2022/10/29 10:01:04;;;;;;;14.27;6.43;;;25.40;99.90;;;;;;5055884;28;20485;-49
2022/10/29 10:03:47;;;;;;;11.77;6.35;;;25.40;99.90;;;;;;5055337;28;20025;-49
2022/10/29 10:06:15;;;;;;;20.05;7.13;;;25.60;99.90;;;;;;5054960;28;20071;-49
2022/10/29 10:09:01;;;;;;;9.63;5.43;;;25.60;99.90;;;;;;5055116;28;20017;-49
2022/10/29 10:11:37;;;;;;;13.73;6.57;;;25.70;99.90;;;;;;5054599;28;20329;-49
2022/10/29 10:14:12;;;;;;;11.88;5.40;;;25.80;99.90;;;;;;5054414;28;20022;-49
2022/10/29 10:16:39;;;;;;;17.38;6.55;;;25.90;99.90;;;;;;5055631;28;20029;-49
2022/10/29 10:19:25;;;;;;;12.65;6.68;;;26.10;99.90;;;;;;5055625;28;20127;-49
2022/10/29 10:22:03;;;;;;;17.10;6.87;;;26.20;99.90;;;;;;5055605;28;20078;-49
2022/10/29 10:24:34;;;;;;;11.75;5.90;;;26.30;99.90;;;;;;5037584;28;20025;-49
2022/10/29 10:27:20;;;;;;;16.55;6.45;;;26.30;99.90;;;;;;5053663;28;20029;-50
2022/10/29 10:30:11;;;;;;;11.52;5.95;;;26.40;99.90;;;;;;5053171;28;20349;-49
2022/10/29 10:32:37;;;;;;;15.15;6.35;;;26.40;99.90;;;;;;5052936;28;20024;-49
2022/10/29 10:35:25;;;;;;;12.30;6.88;;;26.30;99.90;;;;;;5051999;28;20029;-49
2022/10/29 10:37:51;;;;;;;15.13;6.55;;;26.20;99.90;;;;;;5053282;28;20025;-49
2022/10/29 10:40:23;;;;;;;11.48;6.82;;;26.10;99.90;;;;;;5052935;28;20029;-49
2022/10/29 10:42:52;;;;;;;14.90;7.07;;;26.00;99.90;;;;;;5055301;28;20025;-49
2022/10/29 10:45:26;;;;;;;13.73;6.63;;;25.90;99.90;;;;;;5055094;28;20032;-48
2022/10/29 10:47:57;;;;;;;13.60;6.60;;;25.80;99.90;;;;;;5055190;28;20025;-49
2022/10/29 10:50:25;;;;;;;12.77;6.70;;;25.80;99.90;;;;;;5055162;28;20017;-49
2022/10/29 10:52:53;;;;;;;13.30;6.65;;;25.80;99.90;;;;;;5054945;28;20052;-49
2022/10/29 10:55:33;;;;;;;14.05;6.70;;;25.80;99.90;;;;;;5054900;28;20017;-49
2022/10/29 10:58:07;;;;;;;15.48;6.38;;;25.80;99.90;;;;;;5054793;28;20029;-49
2022/10/29 11:00:47;;;;;;;17.27;7.10;;;25.70;99.90;;;;;;5054473;28;20045;-49
2022/10/29 11:03:35;;;;;;;16.70;7.20;;;25.70;99.90;;;;;;5036790;28;20139;-49
2022/10/29 11:06:04;;;;;;;10.90;6.72;;;25.80;99.90;;;;;;5054730;28;20036;-49
2022/10/29 11:08:42;;;;;;;18.88;8.85;;;25.80;99.90;;;;;;5054655;28;20059;-49
2022/10/29 11:11:21;;;;;;;12.95;6.85;;;25.80;99.90;;;;;;5054711;28;20296;-49
2022/10/29 11:13:48;;;;;;;17.10;9.52;;;25.80;99.90;;;;;;5054658;28;20482;-50
2022/10/29 11:16:17;;;;;;;16.55;6.28;;;25.90;99.90;;;;;;5054519;28;20029;-50
2022/10/29 11:18:52;;;;;;;16.30;8.48;;;25.90;99.90;;;;;;5053666;28;20048;-48
2022/10/29 11:21:24;;;;;;;12.63;6.60;;;26.00;99.90;;;;;;5053109;28;20037;-49
2022/10/29 11:24:01;;;;;;;10.88;6.93;;;25.90;99.90;;;;;;5036399;28;20078;-50
2022/10/29 11:26:48;;;;;;;14.13;7.55;;;26.00;99.90;;;;;;5052003;28;20476;-49
2022/10/29 11:29:46;;;;;;;13.95;7.45;;;26.00;99.90;;;;;;5040405;28;20029;-51
2022/10/29 11:32:31;;;;;;;12.32;6.90;;;26.00;99.90;;;;;;5043047;28;20041;-51
2022/10/29 11:35:15;;;;;;;14.77;7.72;;;26.10;99.90;;;;;;5054185;28;20036;-51
2022/10/29 11:37:49;;;;;;;13.82;6.93;;;26.10;99.90;;;;;;5052116;28;20033;-51
2022/10/29 11:40:35;;;;;;;15.02;7.65;;;26.20;99.90;;;;;;5053718;28;20036;-50
2022/10/29 11:43:02;;;;;;;21.05;7.70;;;26.20;99.90;;;;;;5024201;28;20033;-51
2022/10/29 11:45:52;;;;;;;15.30;7.05;;;26.30;99.90;;;;;;5051253;28;20033;-51
2022/10/29 11:48:26;;;;;;;12.32;6.40;;;26.30;99.90;;;;;;5043230;28;20030;-50
2022/10/29 11:50:56;;;;;;;15.13;6.93;;;26.40;99.90;;;;;;5048640;28;20035;-49
2022/10/29 11:53:47;;;;;;;15.18;6.57;;;26.50;99.90;;;;;;5045848;28;20025;-50
2022/10/29 11:56:35;;;;;;;9.80;6.35;;;26.60;99.90;;;;;;5053646;28;20473;-49
2022/10/29 11:59:07;;;;;;;15.43;7.28;;;26.70;99.90;;;;;;5053803;28;20032;-49
2022/10/29 12:01:53;;;;;;;13.13;7.30;;;26.80;99.90;;;;;;5050322;28;20048;-50
2022/10/29 12:04:28;;;;;;;14.40;6.17;;;26.90;99.90;;;;;;5028106;28;20435;-50
2022/10/29 12:07:25;;;;;;;15.13;7.18;;;27.00;99.90;;;;;;5049767;28;20040;-50
2022/10/29 12:10:03;;;;;;;14.50;5.85;;;27.10;99.90;;;;;;5050337;28;20028;-50
2022/10/29 12:12:42;;;;;;;;;;;27.20;99.90;;;;;;5053814;28;20028;-50
2022/10/29 12:15:15;;;;;;;15.20;6.93;;;27.30;99.90;;;;;;5053117;28;20006;-50
2022/10/29 12:18:00;;;;;;;10.68;6.10;;;27.30;99.90;;;;;;5052040;28;20052;-50
2022/10/29 12:20:28;;;;;;;14.05;7.35;;;27.40;99.90;;;;;;5035664;28;20128;-50
2022/10/29 12:23:02;;;;;;;14.05;6.68;;;27.40;99.90;;;;;;5053236;28;20429;-50
2022/10/29 12:25:50;;;;;;;17.23;6.10;;;27.50;99.90;;;;;;5053219;28;20059;-50
2022/10/29 12:28:43;;;;;;;15.98;6.80;;;27.60;99.90;;;;;;5051678;28;20021;-50
2022/10/29 12:31:28;;;;;;;11.52;6.32;;;27.70;99.90;;;;;;5027014;28;20034;-50
2022/10/29 12:34:04;;;;;;;16.02;6.72;;;27.80;99.90;;;;;;5033328;28;20018;-51
2022/10/29 12:36:49;;;;;;;14.98;8.40;;;28.00;99.90;;;;;;5033430;28;20163;-49
2022/10/29 12:39:35;;;;;;;18.88;7.60;;;28.00;99.90;;;;;;5041594;28;20113;-49
2022/10/29 12:42:13;;;;;;;18.77;7.07;;;28.00;99.90;;;;;;5052048;28;20029;-49
2022/10/29 12:44:53;;;;;;;14.40;6.60;;;27.90;99.90;;;;;;5050647;28;20032;-49
2022/10/29 12:47:45;;;;;;;13.32;8.20;;;27.90;99.90;;;;;;5049591;28;20079;-49
2022/10/29 12:50:22;;;;;;;14.80;6.20;;;27.80;99.90;;;;;;5034173;28;20120;-49
2022/10/29 12:52:50;;;;;;;19.52;6.50;;;27.80;99.90;;;;;;5049313;28;20549;-50
2022/10/29 12:55:17;;;;;;;14.20;6.75;;;27.70;99.90;;;;;;5050674;28;20078;-49